Booneville, North Carolina
Current Conditions -  °F | °C
As of 6:55 PM on Saturday 25 Oct 2014 (Local Time) from KMWK Reporting Station
Clear Clear  
Wind Chill: 66°   Ceiling: Unl
Heat Index: 66°   Visibility: 10mi
Dew Point: 44°   Wind: 0mph
Humidity: 44%   Direction: NA
Pressure: 29.94"   Gusts: NA
Location:  36.2374°N, 80.6343°W
Report Text: KMWK 252255Z AUTO 00000KT 10SM CLR 19/07 A2994 RMK AO2 T01900065
Loading
Personal Weather Stations






























Interactive Weather Map
Tropical Storm Tracking
New forecast layout! Learn more

10-Day Weather Forecast

Advertisements
Track Severe Weather on mobile